Aviation Digital Data Service (ADDS)

Output produced by METARs form (1024 UTC 23 March 2017)
found at http://aviationweather.gov/adds/metars/
 
KDAG 230950Z AUTO 25024G31KT 10SM CLR 10/02 A2993 RMK AO2 PK WND 24031/0943 SLP122 T01000022
KDAG 230816Z 2308/2406 25018G26KT P6SM FEW090 SCT200 
     FM231800 26020G30KT P6SM FEW080 SCT200
       
KEDW 230958Z AUTO 28019G22KT 10SM CLR 08/02 A2996 RMK AO2 PK WND 28026/40 SLP139 T00800024
TAF KEDW 231003Z 2310/2416 27012G18KT 9999 SCT150 QNH2995INS 
     BECMG 2315/2316 29015G25KT 9999 SCT200 520009 QNH3001INS 
     TEMPO 2321/2402 28025G35KT 530009 
     BECMG 2404/2405 25009KT 9999 FEW150 SCT250 QNH3006INS TX18/2323Z TN05/2314Z
       
KVCV 231015Z AUTO 27008KT 10SM CLR 06/01 A2998 RMK AO2
KONT 230953Z 24005KT 10SM BKN019 11/08 A2999 RMK AO2 SLP149 T01110083
KONT 231003Z 2310/2412 24005KT P6SM BKN019 
     FM231400 24005KT P6SM SCT019 BKN030 
     FM232000 25011KT P6SM FEW050 
     FM240400 VRB05KT P6SM SCT250
       
KNID 230956Z AUTO 29006KT 10SM CLR 10/M01 A2989 RMK AO2 SLP117 T01001006 $
TAF COR KNID 2223/2323 24024G34KT 9999 FEW080 BKN250 530009 530909 QNH2985INS SHRA OMTNS SW-NW 
     TEMPO 2223/2303 24017G25KT 9999 VCSH SCT080 BKN130 TS OMTNS SW-W 
     BECMG 2301/2303 25014G24KT 9999 SCT250 BKN280 520009 520909 QNH2981NS 
     TEMPO 2303/2307 25020G28KT 
     BECMG 2308/2310 23010G18KT 9999 FEW250 500000 QNH2992INS T08/2314Z T21/2322Z LAST NO AMDS AFT 2305 NEXT 2315 COR 2321
       
KSNA 230953Z AUTO 00000KT 10SM CLR 13/10 A3000 RMK AO2 SLP159 T01330100 $
KSNA 230520Z 2306/2406 26007KT P6SM FEW025 SCT035 
     FM231900 24011KT P6SM FEW050 
     FM240100 VRB05KT P6SM SCT250
       
KSAN 230951Z 29012KT 10SM SCT028 BKN035 14/08 A3008 RMK AO2 SLP184 T01440078
KSAN 230912Z 2309/2412 29013KT P6SM VCSH FEW020 BKN025 BKN035 
     FM231500 29006KT P6SM SCT025 SCT040 
     FM231900 29012G18KT P6SM SCT040 
     FM240200 29005KT P6SM FEW040
       
KNXP 230956Z AUTO 30016G25KT 10SM CLR 11/01 A2998 RMK AO2 PK WND 31029/0924 SLP129 T01110006
TAF KNXP 2309/2409 30015G25KT 9999 SCT200 QNH2993INS 
     TEMPO 2309/2315 28020G30KT 
     BECMG 2404/2406 28010KT 9999 FEW200 QNH3016INS AUTOMATED SENSOR METWATCH 2309 TIL 2315 T10/2314Z T22/2322Z
       
KPSP 230953Z 00000KT 10SM CLR 16/03 A2989 RMK AO2 SLP119 T01560033
KPSP 230520Z 2306/2406 31012G22KT P6SM SCT100 
     FM230800 32010KT P6SM SCT120 
     FM231100 VRB06KT P6SM FEW120 
     FM231600 33010G18KT P6SM SKC 
     FM240500 33008KT P6SM SKC
       
KLAX 230953Z 29007KT 10SM FEW070 FEW150 13/09 A3001 RMK AO2 SLP160 T01330094
KLAX 230914Z 2309/2412 29007KT P6SM SKC 
     FM231100 32010KT P6SM SKC 
     FM231800 27012KT P6SM SKC 
     FM232100 26015G25KT P6SM SKC 
     FM240300 27012KT P6SM SCT250 
     FM240900 VRB03KT P6SM OVC025
       
KCNO 230953Z AUTO 28006KT 8SM CLR 11/08 A3000 RMK AO2 SLP156 T01060083
KSMO 230951Z AUTO 00000KT 10SM CLR 12/08 A3001 RMK AO2 SLP160 T01170083
KSMO 230536Z 2306/2406 VRB03KT P6SM SKC 
     FM231800 26012KT P6SM SKC 
     FM240200 VRB03KT P6SM SKC
       
KLGB 230953Z 30003KT 10SM CLR 13/08 A3000 RMK AO2 SLP158 T01280083
KLGB 230800Z 2308/2406 30010KT P6SM SKC 
     FM240400 VRB03KT P6SM SKC
       
KVNY 230951Z AUTO 26004KT 10SM CLR 11/08 A3000 RMK AO2 SLP156 T01060078
KVNY 230536Z 2306/2406 35008KT P6SM SKC 
     FM232000 36015KT P6SM SKC 
     FM240300 34008KT P6SM SKC
       
KBUR 230953Z 31003KT 10SM CLR 11/04 A2999 RMK AO2 SLP147 T01110039
KBUR 230536Z 2306/2406 VRB03KT P6SM SKC 
     FM230800 32006KT P6SM SKC 
     FM232100 19015KT P6SM SKC 
     FM240200 21008KT P6SM SKC
       
KBFL 230954Z AUTO 34009KT 10SM SCT055 OVC090 10/08 A3010 RMK AO2 RAE47 SLP191 P0000 T01000078
KBFL 230639Z 2307/2406 30003KT P6SM SCT021 BKN030 OVC080 
     FM232100 30008KT P6SM SCT050
       
KPMD 230953Z AUTO 28019KT 10SM CLR 08/03 A3000 RMK AO2 SLP151 T00780028
KPMD 230536Z 2306/2406 28015KT P6SM SKC 
     FM232000 27018G28KT P6SM SKC 
     FM240300 27015KT P6SM SKC
       
KOXR 230951Z AUTO 31013G22KT 10SM CLR 13/08 A3002 RMK AO2 SLP163 T01330078
KOXR 230606Z 2306/2406 31012G20KT P6SM SKC 
     FM230900 30010KT P6SM SKC 
     FM232100 27015G25KT P6SM SKC 
     FM240300 28008KT P6SM SKC
       
KWJF 230956Z AUTO 27016KT 10SM FEW047 SCT055 BKN070 07/03 A3001 RMK AO2 SLP162 T00670028
KWJF 230536Z 2306/2406 26015KT P6SM SKC 
     FM231100 28015G25KT P6SM SKC 
     FM231800 27022G32KT P6SM SKC 
     FM240300 28015G25KT P6SM SKC
       
KCMA 230955Z 00000KT 10SM CLR 09/07 A3003 RMK AO2 SLP177 T00890072
KCMA 230536Z 2306/2406 28008KT P6SM SKC 
     FM231200 VRB03KT P6SM SKC 
     FM231800 28008KT P6SM SKC 
     FM232100 26015G20KT P6SM SKC 
     FM240400 VRB03KT P6SM SKC
       
KFAT 230953Z 32009KT 10SM FEW080 08/06 A3012 RMK AO2 SLP198 T00830061
KFAT 230520Z 2306/2406 30012KT P6SM FEW060 FEW130 
     FM230800 32007KT P6SM SKC
       
KEED 230956Z AUTO 28009KT 10SM CLR 16/01 A2984 RMK AO2 SLP083 T01610006 $
KEED 230539Z 2306/2406 29011KT P6SM BKN100 
     FM231600 31013KT P6SM SCT100 
     FM231800 34016G23KT P6SM BKN100 
     FM240200 28010KT P6SM SCT100
       
KLSV 230958Z AUTO 32004KT 10SM BKN100 12/M01 A2975 RMK AO2 SLP063 T01201015 $
TAF AMD KLSV 230956Z 2309/2413 23012KT 9999 SCT150 510009 QNH2974INS 
     BECMG 2311/2312 23012G20KT 9999 SCT100 QNH2984INS 
     BECMG 2321/2322 31010KT 9999 SKC QNH2990INS 
     BECMG 2402/2403 25008KT 9999 FEW200 QNH2992INS TX20/2322Z TN09/2312Z
       
KLAS 230956Z 19005KT 10SM FEW120 SCT170 SCT220 12/M02 A2977 RMK AO2 SLP069 T01221022
KLAS 230851Z 2309/2406 21013G22KT P6SM FEW100 SCT200 
     FM231000 26010KT P6SM FEW100 SCT200 
     FM231600 32015G22KT P6SM SCT060 BKN100 
     FM232000 30015G22KT P6SM SCT100 
     FM240300 25011KT P6SM FEW100
       
KHII 231015Z AUTO 26008KT 10SM FEW044 15/02 A2985 RMK AO2
KIFP 231015Z AUTO 22013KT 10SM CLR 15/01 A2982 RMK AO2
KIFP 230539Z 2306/2406 15008KT P6SM BKN100 
     FM231600 30012G20KT P6SM BKN100 
     FM240200 33010KT P6SM SCT100